Time;durP1;ratioP1;P1;durP2;ratioP2;P2;SDS_P1;SDS_P2;PMS_P1;PMS_P2;Temp;Humidity;BMP_temperature;BMP_pressure;BME280_temperature;BME280_humidity;BME280_pressure;Samples;Min_cycle;Max_cycle;Signal;HPM_P1;HPM_P2
2022/11/28 00:01:18;;;;;;;18.08;10.45;;;6.10;99.90;;;;;;4996103;28;20064;-75
2022/11/28 00:03:43;;;;;;;17.23;10.40;;;6.10;99.90;;;;;;5001916;28;20070;-75
2022/11/28 00:06:09;;;;;;;15.93;9.60;;;6.10;99.90;;;;;;4996077;28;20157;-75
2022/11/28 00:08:36;;;;;;;18.95;10.48;;;6.10;99.90;;;;;;4996454;28;20131;-75
2022/11/28 00:11:06;;;;;;;19.10;10.73;;;6.10;99.90;;;;;;4999554;28;20085;-75
2022/11/28 00:13:32;;;;;;;18.07;10.03;;;6.10;99.90;;;;;;4999101;28;20037;-76
2022/11/28 00:16:00;;;;;;;15.32;10.27;;;6.00;99.90;;;;;;4980494;28;20323;-75
2022/11/28 00:18:29;;;;;;;16.88;9.95;;;6.10;99.90;;;;;;4998394;28;20127;-75
2022/11/28 00:21:05;;;;;;;18.50;10.43;;;6.10;99.90;;;;;;5001492;28;20066;-76
2022/11/28 00:23:32;;;;;;;20.15;10.63;;;6.00;99.90;;;;;;4982429;28;20045;-76
2022/11/28 00:26:09;;;;;;;19.95;10.02;;;6.00;99.90;;;;;;5001660;28;20427;-76
2022/11/28 00:28:35;;;;;;;17.90;10.63;;;6.00;99.90;;;;;;5001447;28;20432;-76
2022/11/28 00:31:01;;;;;;;17.30;10.70;;;6.00;99.90;;;;;;4998940;28;20110;-75
2022/11/28 00:33:27;;;;;;;21.58;9.77;;;6.00;99.90;;;;;;4983128;28;20038;-75
2022/11/28 00:36:03;;;;;;;17.65;10.10;;;6.00;99.90;;;;;;5004032;28;20150;-75
2022/11/28 00:38:30;;;;;;;18.40;10.43;;;6.00;99.90;;;;;;4998431;28;20077;-75
2022/11/28 00:41:04;;;;;;;17.42;10.57;;;6.00;99.90;;;;;;4999948;28;20033;-74
2022/11/28 00:43:31;;;;;;;19.98;10.48;;;6.00;99.90;;;;;;5001253;28;20046;-75
2022/11/28 00:45:57;;;;;;;18.90;9.65;;;6.00;99.90;;;;;;4999771;28;20041;-75
2022/11/28 00:48:24;;;;;;;16.13;9.80;;;6.00;99.90;;;;;;4984557;28;20127;-74
2022/11/28 00:50:51;;;;;;;16.92;10.32;;;6.00;99.90;;;;;;5002816;28;20152;-74
2022/11/28 00:53:16;;;;;;;18.35;9.13;;;6.00;99.90;;;;;;4986517;28;20233;-75
2022/11/28 00:55:42;;;;;;;20.48;10.48;;;6.00;99.90;;;;;;4999899;28;20614;-75
2022/11/28 00:58:08;;;;;;;16.10;9.88;;;6.00;99.90;;;;;;5001000;28;20526;-75
2022/11/28 01:00:35;;;;;;;17.90;10.00;;;6.00;99.90;;;;;;4983446;28;20407;-74
2022/11/28 01:03:00;;;;;;;17.55;9.35;;;6.00;99.90;;;;;;5001437;28;20038;-74
2022/11/28 01:05:29;;;;;;;16.23;9.15;;;6.00;99.90;;;;;;5001200;28;20057;-75
2022/11/28 01:07:55;;;;;;;14.38;9.43;;;6.00;99.90;;;;;;4985132;28;20053;-75
2022/11/28 01:10:20;;;;;;;15.18;8.55;;;6.00;99.90;;;;;;4985200;28;20054;-75
2022/11/28 01:12:46;;;;;;;14.82;9.32;;;6.00;99.90;;;;;;5000912;28;20575;-74
2022/11/28 01:15:12;;;;;;;16.30;9.52;;;6.00;99.90;;;;;;5000677;28;20392;-76
2022/11/28 01:17:38;;;;;;;15.65;8.80;;;6.00;99.90;;;;;;5000505;28;20041;-75
2022/11/28 01:20:06;;;;;;;16.33;9.05;;;6.00;99.90;;;;;;4994974;28;20754;-75
2022/11/28 01:22:32;;;;;;;17.85;9.73;;;6.00;99.90;;;;;;4993514;28;20061;-75
2022/11/28 01:24:58;;;;;;;17.90;9.48;;;6.00;99.90;;;;;;4995989;28;20065;-74
2022/11/28 01:27:23;;;;;;;15.80;9.63;;;6.00;99.90;;;;;;4999968;28;20053;-74
2022/11/28 01:29:52;;;;;;;14.40;9.32;;;6.00;99.90;;;;;;4998007;28;20049;-75
2022/11/28 01:32:17;;;;;;;17.48;9.82;;;6.00;99.90;;;;;;5000351;28;20504;-75
2022/11/28 01:34:43;;;;;;;23.50;10.15;;;6.00;99.90;;;;;;4989638;28;20184;-75
2022/11/28 01:37:09;;;;;;;16.27;8.95;;;6.00;99.90;;;;;;5001343;28;20369;-75
2022/11/28 01:39:36;;;;;;;18.73;9.55;;;6.00;99.90;;;;;;4997203;28;20041;-75
2022/11/28 01:42:02;;;;;;;17.35;10.48;;;6.00;99.90;;;;;;5000950;28;20041;-75
2022/11/28 01:44:28;;;;;;;18.65;10.35;;;6.00;99.90;;;;;;5000549;28;20037;-76
2022/11/28 01:46:54;;;;;;;16.38;10.23;;;6.00;99.90;;;;;;4986501;28;20076;-74
2022/11/28 01:49:30;;;;;;;19.73;9.07;;;6.10;99.90;;;;;;5003571;28;20474;-75
2022/11/28 01:52:04;;;;;;;16.73;10.70;;;6.10;99.90;;;;;;4990904;28;20046;-74
2022/11/28 01:54:31;;;;;;;25.45;10.70;;;6.10;99.90;;;;;;4987943;28;20077;-75
2022/11/28 01:57:04;;;;;;;17.70;9.95;;;6.10;99.90;;;;;;5007156;28;20065;-74
2022/11/28 01:59:36;;;;;;;21.42;11.07;;;6.10;99.90;;;;;;5004061;28;20044;-74
2022/11/28 02:02:08;;;;;;;17.42;10.25;;;6.70;99.90;;;;;;5001835;28;20125;-74
2022/11/28 02:04:34;;;;;;;18.48;10.65;;;6.10;99.90;;;;;;5005593;28;20034;-75
2022/11/28 02:07:00;;;;;;;21.60;11.00;;;6.10;99.90;;;;;;4975012;28;20085;-74
2022/11/28 02:09:29;;;;;;;20.98;10.95;;;6.10;99.90;;;;;;5004876;28;20097;-74
2022/11/28 02:12:21;;;;;;;20.33;12.15;;;6.70;99.90;;;;;;4975797;28;20054;-74
2022/11/28 02:15:02;;;;;;;18.98;12.07;;;6.10;99.90;;;;;;4994116;28;20061;-75
2022/11/28 02:18:05;;;;;;;20.93;12.30;;;6.10;99.90;;;;;;5001941;28;20042;-75
2022/11/28 02:21:10;;;;;;;20.90;11.93;;;6.10;99.90;;;;;;5003147;28;20355;-74
2022/11/28 02:23:38;;;;;;;19.88;11.60;;;6.30;99.90;;;;;;4937086;28;20050;-75
2022/11/28 02:26:07;;;;;;;20.92;12.23;;;6.10;99.90;;;;;;5003702;28;20052;-75
2022/11/28 02:29:06;;;;;;;22.92;12.93;;;6.10;99.90;;;;;;4988180;28;20037;-75
2022/11/28 02:31:50;;;;;;;19.75;12.32;;;6.10;99.90;;;;;;5002693;28;20103;-75
2022/11/28 02:34:28;;;;;;;25.25;14.15;;;6.10;99.90;;;;;;5002694;28;20130;-74
2022/11/28 02:37:08;;;;;;;20.17;13.77;;;6.20;99.90;;;;;;5005129;28;20050;-75
2022/11/28 02:39:50;;;;;;;24.13;14.05;;;6.20;99.90;;;;;;5003652;28;20049;-75
2022/11/28 02:42:29;;;;;;;23.67;14.25;;;6.20;99.90;;;;;;5004983;28;20044;-74
2022/11/28 02:45:06;;;;;;;26.65;14.02;;;6.20;99.90;;;;;;5004444;28;20045;-75
2022/11/28 02:47:37;;;;;;;22.42;14.60;;;6.20;99.90;;;;;;5003622;28;20073;-75
2022/11/28 02:50:08;;;;;;;27.75;15.57;;;6.20;99.90;;;;;;4982888;28;20735;-75
2022/11/28 02:52:46;;;;;;;;;;;6.20;99.90;;;;;;5005545;28;20041;-74
2022/11/28 02:55:13;;;;;;;24.25;14.57;;;6.30;99.90;;;;;;5003487;28;19930;-75
2022/11/28 02:57:41;;;;;;;27.08;16.23;;;6.20;99.90;;;;;;5008017;28;20751;-76
2022/11/28 03:00:29;;;;;;;25.08;15.30;;;6.30;99.90;;;;;;4999478;28;20081;-75
2022/11/28 03:03:14;;;;;;;24.42;15.65;;;6.30;99.90;;;;;;4999537;28;20049;-76
2022/11/28 03:05:43;;;;;;;26.98;15.77;;;6.30;99.90;;;;;;5005091;28;20050;-75
2022/11/28 03:08:14;;;;;;;27.70;15.55;;;6.30;99.90;;;;;;5001288;28;20046;-75
2022/11/28 03:10:53;;;;;;;24.98;15.57;;;6.30;99.90;;;;;;4994327;28;20132;-75
2022/11/28 03:13:44;;;;;;;23.52;15.23;;;6.30;99.90;;;;;;4996921;28;20698;-75
2022/11/28 03:16:13;;;;;;;23.58;15.60;;;6.30;99.90;;;;;;5001453;28;20038;-74
2022/11/28 03:18:47;;;;;;;27.27;15.20;;;6.30;99.90;;;;;;4980966;28;20052;-74
2022/11/28 03:21:28;;;;;;;24.73;15.82;;;6.30;99.90;;;;;;4978542;28;20101;-75
2022/11/28 03:24:04;;;;;;;25.58;14.85;;;6.30;99.90;;;;;;5003171;28;20399;-76
2022/11/28 03:26:38;;;;;;;25.15;15.63;;;6.30;99.90;;;;;;5000112;28;20042;-75
2022/11/28 03:29:24;;;;;;;22.48;13.95;;;6.40;99.90;;;;;;5000666;28;20069;-75
2022/11/28 03:31:57;;;;;;;26.55;14.45;;;6.40;99.90;;;;;;4995055;28;20085;-75
2022/11/28 03:34:26;;;;;;;22.23;14.55;;;6.40;99.90;;;;;;5001394;28;20116;-74
2022/11/28 03:37:06;;;;;;;25.20;15.35;;;6.50;99.90;;;;;;5005004;28;20071;-75
2022/11/28 03:39:37;;;;;;;27.48;16.88;;;6.40;99.90;;;;;;4983252;28;20058;-74
2022/11/28 03:42:11;;;;;;;25.70;15.45;;;6.40;99.90;;;;;;5001875;28;20118;-73
2022/11/28 03:44:44;;;;;;;22.88;15.20;;;6.40;99.90;;;;;;5001392;28;20133;-75
2022/11/28 03:47:10;;;;;;;24.40;16.35;;;6.40;99.90;;;;;;5001762;28;20068;-74
2022/11/28 03:49:50;;;;;;;28.25;15.98;;;6.40;99.90;;;;;;4981741;28;20050;-74
2022/11/28 03:52:24;;;;;;;26.58;16.33;;;6.50;99.90;;;;;;5002353;28;20103;-74
2022/11/28 03:54:55;;;;;;;29.58;16.33;;;6.40;99.90;;;;;;4981710;28;20041;-75
2022/11/28 03:57:34;;;;;;;26.38;17.25;;;6.50;99.90;;;;;;4982783;28;20053;-75
2022/11/28 04:00:06;;;;;;;26.95;17.65;;;6.50;99.90;;;;;;4999736;28;20073;-75
2022/11/28 04:02:57;;;;;;;28.08;16.73;;;6.50;99.90;;;;;;5002127;28;20038;-73
2022/11/28 04:05:41;;;;;;;25.02;16.45;;;6.50;99.90;;;;;;5002092;28;20518;-75
2022/11/28 04:08:25;;;;;;;25.98;17.95;;;6.50;99.90;;;;;;5003703;28;20530;-74
2022/11/28 04:11:19;;;;;;;27.80;17.77;;;6.50;99.90;;;;;;5000944;28;20092;-74
2022/11/28 04:13:57;;;;;;;26.35;18.67;;;6.50;99.90;;;;;;4984440;28;20057;-75
2022/11/28 04:16:43;;;;;;;26.05;18.75;;;6.60;99.90;;;;;;5004820;28;20034;-74
2022/11/28 04:19:17;;;;;;;28.02;17.65;;;6.60;99.90;;;;;;5002813;28;20389;-75
2022/11/28 04:22:14;;;;;;;26.73;18.17;;;6.60;99.90;;;;;;5001781;28;20042;-75
2022/11/28 04:24:45;;;;;;;27.08;17.98;;;6.60;99.90;;;;;;4993758;28;20409;-75
2022/11/28 04:27:16;;;;;;;26.45;17.98;;;6.70;99.90;;;;;;5001759;28;20867;-75
2022/11/28 04:29:49;;;;;;;24.85;17.98;;;6.60;99.90;;;;;;4986085;28;20123;-74
2022/11/28 04:32:20;;;;;;;28.52;18.77;;;6.70;99.90;;;;;;4999896;28;20415;-74
2022/11/28 04:34:55;;;;;;;25.10;18.05;;;6.70;99.90;;;;;;5001270;28;20056;-74
2022/11/28 04:37:23;;;;;;;26.17;16.77;;;6.70;99.90;;;;;;5002947;28;20145;-75
2022/11/28 04:39:51;;;;;;;22.83;16.83;;;6.70;99.90;;;;;;5005482;28;20129;-74
2022/11/28 04:42:29;;;;;;;25.10;17.45;;;6.70;99.90;;;;;;4990793;28;20041;-74
2022/11/28 04:45:07;;;;;;;27.50;17.50;;;6.70;99.90;;;;;;5003653;28;20042;-75
2022/11/28 04:47:33;;;;;;;25.35;17.90;;;6.70;99.90;;;;;;5000771;28;20042;-73
2022/11/28 04:49:59;;;;;;;27.15;16.27;;;6.80;99.90;;;;;;5000596;28;20073;-74
2022/11/28 04:52:40;;;;;;;25.42;17.55;;;6.80;99.90;;;;;;5004165;28;20050;-75
2022/11/28 04:55:31;;;;;;;25.15;16.98;;;6.80;99.90;;;;;;4999496;28;20141;-74
2022/11/28 04:58:14;;;;;;;25.73;18.25;;;6.80;99.90;;;;;;5004281;28;20056;-75
2022/11/28 05:00:42;;;;;;;26.88;17.63;;;6.80;99.90;;;;;;5000491;28;20041;-75
2022/11/28 05:03:09;;;;;;;27.60;18.05;;;6.80;99.90;;;;;;5005367;28;20057;-75
2022/11/28 05:05:55;;;;;;;27.52;18.95;;;6.80;99.90;;;;;;4969865;28;20042;-75
2022/11/28 05:08:21;;;;;;;30.10;16.83;;;6.90;99.90;;;;;;5002601;28;20738;-75
2022/11/28 05:10:46;;;;;;;26.02;16.60;;;6.90;99.90;;;;;;5000815;28;20116;-75
2022/11/28 05:13:12;;;;;;;26.40;16.83;;;6.90;99.90;;;;;;4983851;28;20301;-75
2022/11/28 05:15:38;;;;;;;23.58;16.73;;;6.90;99.90;;;;;;4999530;28;20068;-75
2022/11/28 05:18:04;;;;;;;24.98;17.30;;;6.90;99.90;;;;;;4999898;28;20081;-75
2022/11/28 05:20:32;;;;;;;27.13;16.98;;;6.90;99.90;;;;;;5003302;28;20042;-75
2022/11/28 05:22:57;;;;;;;28.50;18.05;;;6.90;99.90;;;;;;5001120;28;20411;-75
2022/11/28 05:25:23;;;;;;;26.65;17.17;;;7.00;99.90;;;;;;4995248;28;20034;-75
2022/11/28 05:27:49;;;;;;;26.75;17.05;;;7.00;99.90;;;;;;4998660;28;20052;-75
2022/11/28 05:30:15;;;;;;;29.45;17.27;;;7.00;99.90;;;;;;4977925;28;20439;-74
2022/11/28 05:32:41;;;;;;;28.65;17.27;;;7.00;99.90;;;;;;4992059;28;20074;-74
2022/11/28 05:35:07;;;;;;;27.02;16.33;;;7.00;99.90;;;;;;4973572;28;20771;-74
2022/11/28 05:37:33;;;;;;;24.55;16.80;;;7.10;99.90;;;;;;4980993;28;20045;-75
2022/11/28 05:39:59;;;;;;;23.80;16.17;;;7.20;99.90;;;;;;4993455;28;20502;-74
2022/11/28 05:42:27;;;;;;;26.92;16.98;;;7.00;99.90;;;;;;5001663;28;20463;-75
2022/11/28 05:44:53;;;;;;;28.15;17.35;;;7.50;99.90;;;;;;4996047;28;20050;-75
2022/11/28 05:47:18;;;;;;;27.17;17.00;;;7.10;99.90;;;;;;4998641;28;20042;-74
2022/11/28 05:49:46;;;;;;;23.75;15.93;;;7.20;99.90;;;;;;4983562;28;20459;-74
2022/11/28 05:52:11;;;;;;;22.92;15.25;;;7.10;99.90;;;;;;4984778;28;20050;-75
2022/11/28 05:54:37;;;;;;;25.40;15.93;;;7.20;99.90;;;;;;4986876;28;20042;-75
2022/11/28 05:57:05;;;;;;;23.60;16.20;;;7.10;99.90;;;;;;4987528;28;20045;-75
2022/11/28 05:59:31;;;;;;;24.92;15.93;;;7.20;99.90;;;;;;4987178;28;20410;-75
2022/11/28 06:01:57;;;;;;;26.15;15.73;;;7.20;99.90;;;;;;5001240;28;20042;-74
2022/11/28 06:04:22;;;;;;;23.35;15.02;;;7.20;99.90;;;;;;5002580;28;20041;-74
2022/11/28 06:06:49;;;;;;;26.95;15.25;;;7.20;99.90;;;;;;4986775;28;20058;-74
2022/11/28 06:09:15;;;;;;;23.27;15.27;;;7.20;99.90;;;;;;4982933;28;20043;-74
2022/11/28 06:11:41;;;;;;;28.23;15.82;;;7.40;99.90;;;;;;4980130;28;20057;-75
2022/11/28 06:14:07;;;;;;;23.15;15.35;;;7.20;99.90;;;;;;4979484;28;20474;-75
2022/11/28 06:16:33;;;;;;;23.40;14.98;;;7.30;99.90;;;;;;4978329;28;20407;-74
2022/11/28 06:19:02;;;;;;;25.67;14.82;;;7.20;99.90;;;;;;4979238;28;20066;-75
2022/11/28 06:21:29;;;;;;;21.13;13.55;;;7.30;99.90;;;;;;4980657;28;20035;-74
2022/11/28 06:23:56;;;;;;;22.38;14.88;;;7.30;99.90;;;;;;4981671;28;20042;-74
2022/11/28 06:26:24;;;;;;;23.45;14.73;;;7.30;99.90;;;;;;4982761;28;20039;-77
2022/11/28 06:28:50;;;;;;;23.25;14.98;;;7.30;99.90;;;;;;4981882;28;20043;-75
2022/11/28 06:31:22;;;;;;;27.05;15.50;;;7.30;99.90;;;;;;4981427;28;20045;-75
2022/11/28 06:33:48;;;;;;;26.00;15.27;;;7.30;99.90;;;;;;4980872;28;20713;-76
2022/11/28 06:36:16;;;;;;;24.67;15.68;;;7.30;99.90;;;;;;4979478;28;20419;-73
2022/11/28 06:38:42;;;;;;;24.55;15.05;;;7.40;99.90;;;;;;4966775;28;20464;-72
2022/11/28 06:41:11;;;;;;;25.58;15.75;;;7.40;99.90;;;;;;4984916;28;20070;-74
2022/11/28 06:43:37;;;;;;;27.15;15.40;;;7.30;99.90;;;;;;4984303;28;20093;-74
2022/11/28 06:46:03;;;;;;;22.25;14.25;;;7.40;99.90;;;;;;4980703;28;20109;-74
2022/11/28 06:48:29;;;;;;;25.55;14.80;;;7.40;99.90;;;;;;4982630;28;20053;-74
2022/11/28 06:51:04;;;;;;;25.90;14.82;;;7.50;99.90;;;;;;4984195;28;20038;-74
2022/11/28 06:53:30;;;;;;;20.90;13.25;;;7.40;99.90;;;;;;4977946;28;20212;-75
2022/11/28 06:55:56;;;;;;;24.08;13.60;;;7.40;99.90;;;;;;4978626;28;20044;-75
2022/11/28 06:58:22;;;;;;;22.08;13.70;;;7.40;99.90;;;;;;4978404;28;20430;-73
2022/11/28 07:00:48;;;;;;;22.20;13.32;;;7.40;99.90;;;;;;4975757;28;20050;-74
2022/11/28 07:03:14;;;;;;;30.80;14.73;;;7.40;99.90;;;;;;4982631;28;20056;-74
2022/11/28 07:05:39;;;;;;;22.00;13.43;;;7.40;99.90;;;;;;4982682;28;20038;-75
2022/11/28 07:08:05;;;;;;;23.63;14.10;;;7.40;99.90;;;;;;4979552;28;20058;-74
2022/11/28 07:10:31;;;;;;;20.33;13.13;;;7.40;99.90;;;;;;4980212;28;20050;-75
2022/11/28 07:12:59;;;;;;;20.85;12.68;;;7.40;99.90;;;;;;4979236;28;20069;-74
2022/11/28 07:15:26;;;;;;;22.63;13.55;;;7.50;99.90;;;;;;4976419;28;20042;-75
2022/11/28 07:17:53;;;;;;;21.77;13.43;;;7.50;99.90;;;;;;4983819;28;20084;-75
2022/11/28 07:20:19;;;;;;;22.08;13.77;;;7.40;99.90;;;;;;4983597;28;20046;-75
2022/11/28 07:22:46;;;;;;;22.15;12.40;;;7.50;99.90;;;;;;4979543;28;20057;-75
2022/11/28 07:25:13;;;;;;;18.85;11.75;;;7.40;99.90;;;;;;4981927;28;20045;-75
2022/11/28 07:27:40;;;;;;;20.02;11.90;;;7.50;99.90;;;;;;4980465;28;20128;-74
2022/11/28 07:30:07;;;;;;;18.90;11.90;;;7.50;99.90;;;;;;4982375;28;20089;-75
2022/11/28 07:32:33;;;;;;;20.02;10.90;;;7.50;99.90;;;;;;4980744;28;20065;-76
2022/11/28 07:34:59;;;;;;;16.85;11.57;;;7.50;99.90;;;;;;4972167;28;20046;-73
2022/11/28 07:37:24;;;;;;;19.17;11.48;;;7.50;99.90;;;;;;4976978;28;20114;-75
2022/11/28 07:39:50;;;;;;;19.08;11.65;;;7.50;99.90;;;;;;4972689;28;20065;-70
2022/11/28 07:42:16;;;;;;;17.08;10.90;;;7.50;99.90;;;;;;4969550;28;20132;-70
2022/11/28 07:44:42;;;;;;;18.27;11.23;;;7.50;99.90;;;;;;4965436;28;20133;-71
2022/11/28 07:47:07;;;;;;;18.30;11.40;;;7.50;99.90;;;;;;4966615;28;20155;-71
2022/11/28 07:49:33;;;;;;;18.00;11.02;;;7.50;99.90;;;;;;4966334;28;20627;-70
2022/11/28 07:51:59;;;;;;;17.23;10.73;;;7.50;99.90;;;;;;4969589;28;20047;-71
2022/11/28 07:54:24;;;;;;;18.08;11.20;;;7.50;99.90;;;;;;4977137;28;20046;-70
2022/11/28 07:56:50;;;;;;;16.98;10.55;;;7.50;99.90;;;;;;4974574;28;20481;-70
2022/11/28 07:59:16;;;;;;;19.17;11.35;;;7.50;99.90;;;;;;4958399;28;20144;-71
2022/11/28 08:01:42;;;;;;;18.75;11.95;;;7.50;99.90;;;;;;4975104;28;20048;-71
2022/11/28 08:04:09;;;;;;;19.65;11.15;;;7.50;99.90;;;;;;4978462;28;20104;-71
2022/11/28 08:06:38;;;;;;;18.65;11.63;;;7.60;99.90;;;;;;4983419;28;20419;-70
2022/11/28 08:09:05;;;;;;;21.00;11.90;;;7.50;99.90;;;;;;4997664;28;20058;-71
2022/11/28 08:11:32;;;;;;;16.80;10.80;;;7.60;99.90;;;;;;4979821;28;20072;-71
2022/11/28 08:13:57;;;;;;;20.33;11.82;;;7.60;99.90;;;;;;4997044;28;20046;-70
2022/11/28 08:16:25;;;;;;;16.55;11.48;;;7.60;99.90;;;;;;4992952;28;20034;-71
2022/11/28 08:18:52;;;;;;;19.15;11.68;;;7.50;99.90;;;;;;4982676;28;20589;-71
2022/11/28 08:21:24;;;;;;;19.77;11.73;;;7.60;99.90;;;;;;4978799;28;20065;-71
2022/11/28 08:23:51;;;;;;;19.00;12.13;;;7.50;99.90;;;;;;4992785;28;20056;-70
2022/11/28 08:26:19;;;;;;;20.33;11.80;;;7.60;99.90;;;;;;4983632;28;20049;-70
2022/11/28 08:28:44;;;;;;;18.98;11.38;;;7.60;99.90;;;;;;4998285;28;20116;-71
2022/11/28 08:31:14;;;;;;;19.20;11.35;;;7.60;99.90;;;;;;4992792;28;20038;-70
2022/11/28 08:33:40;;;;;;;17.52;11.23;;;7.60;99.90;;;;;;4994265;28;20046;-71
2022/11/28 08:36:08;;;;;;;19.73;12.07;;;7.60;99.90;;;;;;5001321;28;20534;-70
2022/11/28 08:38:34;;;;;;;17.05;11.07;;;7.60;99.90;;;;;;4998233;28;20050;-70
2022/11/28 08:41:06;;;;;;;19.67;11.40;;;7.60;99.90;;;;;;4995400;28;20120;-70
2022/11/28 08:43:36;;;;;;;16.67;11.55;;;7.60;99.90;;;;;;4997744;28;20044;-71
2022/11/28 08:46:05;;;;;;;16.45;10.98;;;7.60;99.90;;;;;;4994138;28;20624;-70
2022/11/28 08:48:33;;;;;;;19.42;10.90;;;7.60;99.90;;;;;;4993460;28;20050;-70
2022/11/28 08:50:59;;;;;;;18.08;10.32;;;7.60;99.90;;;;;;4998268;28;20913;-70
2022/11/28 08:53:25;;;;;;;16.33;10.95;;;7.60;99.90;;;;;;5001706;28;20136;-70
2022/11/28 08:55:50;;;;;;;16.83;10.85;;;7.70;99.90;;;;;;4993891;28;20517;-71
2022/11/28 08:58:16;;;;;;;16.65;10.02;;;7.70;99.90;;;;;;5001678;28;20060;-71
2022/11/28 09:00:42;;;;;;;14.20;10.02;;;7.70;99.90;;;;;;4982288;28;20053;-71
2022/11/28 09:03:13;;;;;;;14.88;9.77;;;7.70;99.90;;;;;;4991052;28;20384;-71
2022/11/28 09:05:40;;;;;;;;;;;7.70;99.90;;;;;;4991343;28;20077;-71
2022/11/28 09:08:05;;;;;;;12.77;8.93;;;7.70;99.90;;;;;;4992541;28;19964;-71
2022/11/28 09:10:35;;;;;;;14.70;9.75;;;7.70;99.90;;;;;;4997463;28;20069;-71
2022/11/28 09:13:01;;;;;;;13.82;9.52;;;7.70;99.90;;;;;;4980478;28;20380;-71
2022/11/28 09:15:27;;;;;;;13.57;9.80;;;7.70;99.90;;;;;;4996781;28;20045;-71
2022/11/28 09:17:53;;;;;;;16.90;9.90;;;7.70;99.90;;;;;;5001954;28;20092;-70
2022/11/28 09:20:20;;;;;;;15.38;9.50;;;7.70;99.90;;;;;;4981823;28;20381;-70
2022/11/28 09:22:46;;;;;;;16.98;10.27;;;7.70;99.90;;;;;;4996921;28;20045;-71
2022/11/28 09:25:13;;;;;;;15.35;9.75;;;7.70;99.90;;;;;;4999805;28;20042;-70
2022/11/28 09:27:39;;;;;;;14.32;9.38;;;7.70;99.90;;;;;;4996858;28;20828;-70
2022/11/28 09:30:06;;;;;;;13.18;9.10;;;7.80;99.90;;;;;;4981400;28;20050;-70
2022/11/28 09:32:32;;;;;;;15.05;9.93;;;7.80;99.90;;;;;;4993906;28;20768;-70
2022/11/28 09:34:58;;;;;;;14.02;9.50;;;7.80;99.90;;;;;;4999385;28;20034;-70
2022/11/28 09:37:24;;;;;;;17.33;10.05;;;7.70;99.90;;;;;;4982383;28;20477;-70
2022/11/28 09:39:50;;;;;;;16.70;10.35;;;7.80;99.90;;;;;;4979423;28;20053;-71
2022/11/28 09:42:37;;;;;;;17.88;9.23;;;7.80;99.90;;;;;;4995724;28;20153;-71
2022/11/28 09:45:23;;;;;;;15.55;9.75;;;7.80;99.90;;;;;;4998971;28;20108;-71
2022/11/28 09:47:53;;;;;;;17.35;9.90;;;7.80;99.90;;;;;;4995214;28;20404;-71
2022/11/28 09:50:31;;;;;;;17.10;10.30;;;7.90;99.90;;;;;;5000081;28;20053;-70
2022/11/28 09:53:34;;;;;;;17.02;10.02;;;7.80;99.90;;;;;;4992581;28;20297;-71
2022/11/28 09:56:10;;;;;;;16.83;9.77;;;7.80;99.90;;;;;;4980881;28;20499;-70
2022/11/28 09:58:56;;;;;;;17.70;10.07;;;7.90;99.90;;;;;;4993278;28;20049;-70
2022/11/28 10:01:45;;;;;;;15.38;10.40;;;7.90;99.90;;;;;;4978713;28;20045;-71
2022/11/28 10:04:32;;;;;;;18.52;10.05;;;7.80;99.90;;;;;;4995354;28;20772;-70
2022/11/28 10:07:12;;;;;;;17.58;10.48;;;7.90;99.90;;;;;;4996681;28;20050;-70
2022/11/28 10:09:50;;;;;;;16.48;10.50;;;7.90;99.90;;;;;;4995778;28;20137;-70
2022/11/28 10:12:58;;;;;;;17.58;10.50;;;7.90;99.90;;;;;;5000928;28;20052;-70
2022/11/28 10:15:38;;;;;;;18.75;10.43;;;7.90;99.90;;;;;;4995242;28;20058;-70
2022/11/28 10:18:09;;;;;;;21.90;14.23;;;7.90;99.90;;;;;;4997658;28;20051;-70
2022/11/28 10:20:41;;;;;;;20.50;13.90;;;8.30;99.90;;;;;;5000897;28;20065;-74
2022/11/28 10:23:21;;;;;;;18.60;11.38;;;8.00;99.90;;;;;;5003368;28;20061;-74
2022/11/28 10:26:00;;;;;;;17.42;10.93;;;7.90;99.90;;;;;;5000467;28;20038;-74
2022/11/28 10:28:33;;;;;;;22.85;11.32;;;8.00;99.90;;;;;;4998820;28;20172;-74
2022/11/28 10:31:19;;;;;;;21.17;11.93;;;8.00;99.90;;;;;;5000241;28;20041;-75
2022/11/28 10:33:52;;;;;;;17.58;10.90;;;8.00;99.90;;;;;;4999742;28;20045;-74
2022/11/28 10:36:30;;;;;;;18.73;11.77;;;8.00;99.90;;;;;;4995695;28;20046;-75
2022/11/28 10:39:10;;;;;;;17.80;10.93;;;8.00;99.90;;;;;;5000237;28;20038;-74
2022/11/28 10:42:12;;;;;;;16.80;10.75;;;8.10;99.90;;;;;;4984440;28;20046;-75
2022/11/28 10:45:11;;;;;;;16.95;10.52;;;8.10;99.90;;;;;;5003028;28;20088;-75
2022/11/28 10:47:44;;;;;;;17.98;10.48;;;8.10;99.90;;;;;;5000553;28;20053;-74
2022/11/28 10:50:41;;;;;;;16.30;9.93;;;8.10;99.90;;;;;;4998776;28;20049;-74
2022/11/28 10:53:18;;;;;;;18.23;10.02;;;8.10;99.90;;;;;;4964672;28;20053;-75
2022/11/28 10:55:46;;;;;;;15.88;9.40;;;8.10;99.90;;;;;;4996596;28;21483;-74
2022/11/28 10:59:06;;;;;;;16.65;9.93;;;8.10;99.90;;;;;;4996432;28;20046;-75
2022/11/28 11:01:38;;;;;;;14.23;9.13;;;8.10;99.90;;;;;;4940237;28;20101;-75
2022/11/28 11:04:04;;;;;;;14.50;8.75;;;8.10;99.90;;;;;;4992825;28;20049;-71
2022/11/28 11:06:30;;;;;;;12.55;8.45;;;8.20;99.90;;;;;;4997030;28;20144;-70
2022/11/28 11:08:56;;;;;;;12.85;8.00;;;8.20;99.90;;;;;;5002299;28;20046;-71
2022/11/28 11:11:35;;;;;;;13.35;7.80;;;8.20;99.90;;;;;;4996849;28;20133;-70
2022/11/28 11:14:04;;;;;;;13.68;8.20;;;8.20;99.90;;;;;;4998164;28;20050;-71
2022/11/28 11:16:49;;;;;;;12.52;7.95;;;8.20;99.90;;;;;;4998779;28;20060;-70
2022/11/28 11:19:41;;;;;;;12.15;8.45;;;8.30;99.90;;;;;;4995748;28;20557;-70
2022/11/28 11:22:22;;;;;;;13.27;7.82;;;8.30;99.90;;;;;;4996937;28;20050;-71
2022/11/28 11:25:24;;;;;;;13.13;8.27;;;8.30;99.90;;;;;;4999630;28;20057;-71
2022/11/28 11:27:54;;;;;;;13.75;7.53;;;8.30;99.90;;;;;;4923944;29;20135;-71
2022/11/28 11:30:41;;;;;;;14.50;7.68;;;8.30;99.90;;;;;;4991641;28;20056;-71
2022/11/28 11:33:15;;;;;;;13.27;8.10;;;8.30;99.90;;;;;;4985048;28;20046;-71
2022/11/28 11:35:47;;;;;;;14.32;8.05;;;8.30;99.90;;;;;;4997182;28;20081;-71
2022/11/28 11:38:22;;;;;;;12.40;7.82;;;8.30;99.90;;;;;;4999941;28;20075;-71
2022/11/28 11:40:49;;;;;;;11.85;7.90;;;8.40;99.90;;;;;;4981319;28;20065;-70
2022/11/28 11:43:25;;;;;;;12.23;7.45;;;8.30;99.90;;;;;;5001627;28;20149;-70
2022/11/28 11:46:20;;;;;;;13.55;8.30;;;8.50;99.90;;;;;;4998515;28;20124;-70
2022/11/28 11:48:51;;;;;;;13.07;8.30;;;8.20;99.90;;;;;;4986869;28;20106;-70
2022/11/28 11:51:29;;;;;;;12.23;7.53;;;8.40;99.90;;;;;;4983929;28;20133;-70
2022/11/28 11:54:15;;;;;;;11.95;7.97;;;8.40;99.90;;;;;;5002820;28;20042;-70
2022/11/28 11:56:44;;;;;;;11.32;7.22;;;8.40;99.90;;;;;;4996714;28;20048;-70
2022/11/28 11:59:34;;;;;;;10.95;7.20;;;8.40;99.90;;;;;;4995886;28;20050;-70
2022/11/28 12:02:04;;;;;;;10.85;7.45;;;8.50;99.90;;;;;;4998846;28;20045;-70
2022/11/28 12:04:30;;;;;;;12.43;8.05;;;8.50;99.90;;;;;;4981033;28;20123;-70
2022/11/28 12:06:59;;;;;;;11.45;6.82;;;8.50;99.90;;;;;;4999158;28;20053;-70
2022/11/28 12:09:39;;;;;;;11.25;7.50;;;8.50;99.90;;;;;;4998748;28;20096;-70
2022/11/28 12:12:25;;;;;;;12.02;7.70;;;8.50;99.90;;;;;;4996029;28;20537;-70
2022/11/28 12:14:54;;;;;;;11.35;7.80;;;8.50;99.90;;;;;;4998726;28;20133;-70
2022/11/28 12:17:41;;;;;;;12.07;8.15;;;8.50;99.90;;;;;;4994066;28;20052;-70
2022/11/28 12:20:30;;;;;;;14.30;7.55;;;8.60;99.90;;;;;;4981919;28;20149;-70
2022/11/28 12:22:59;;;;;;;15.00;8.27;;;8.60;99.90;;;;;;4997424;28;20084;-71
2022/11/28 12:25:30;;;;;;;13.32;8.18;;;8.60;99.90;;;;;;4995223;28;20042;-70
2022/11/28 12:28:09;;;;;;;12.85;7.75;;;8.60;99.90;;;;;;4999659;28;20766;-71
2022/11/28 12:30:59;;;;;;;11.45;7.65;;;8.60;99.90;;;;;;4981985;28;20061;-70
2022/11/28 12:33:35;;;;;;;11.90;8.27;;;8.60;99.90;;;;;;4998600;28;20041;-70
2022/11/28 12:36:28;;;;;;;12.30;8.18;;;8.70;99.90;;;;;;4981746;28;20515;-70
2022/11/28 12:38:57;;;;;;;12.98;7.15;;;8.60;99.90;;;;;;4982234;28;20050;-71
2022/11/28 12:41:48;;;;;;;11.90;7.20;;;8.60;99.90;;;;;;4999748;28;20037;-71
2022/11/28 12:44:42;;;;;;;10.80;7.53;;;8.70;99.90;;;;;;4993704;28;20702;-70
2022/11/28 12:47:39;;;;;;;11.20;7.25;;;8.70;99.90;;;;;;4992251;28;20514;-70
2022/11/28 12:50:28;;;;;;;12.85;7.30;;;8.60;99.90;;;;;;4994847;28;20183;-71
2022/11/28 12:53:28;;;;;;;12.88;7.60;;;8.70;99.90;;;;;;4978171;28;20050;-70
2022/11/28 12:55:56;;;;;;;12.18;8.15;;;8.60;99.90;;;;;;4995125;28;20521;-70
2022/11/28 12:58:41;;;;;;;13.20;8.18;;;8.70;99.90;;;;;;4997662;28;20057;-70
2022/11/28 13:01:28;;;;;;;11.80;8.30;;;8.70;99.90;;;;;;4980501;28;20757;-70
2022/11/28 13:04:00;;;;;;;13.27;8.52;;;8.70;99.90;;;;;;4996419;28;20852;-70
2022/11/28 13:06:53;;;;;;;14.00;9.70;;;8.70;99.90;;;;;;4996119;28;20042;-69
2022/11/28 13:09:32;;;;;;;18.20;10.00;;;8.70;99.90;;;;;;4994379;28;20064;-70